sensor_id;sensor_type;location;lat;lon;timestamp;pressure;altitude;pressure_sealevel;temperature;humidity
35647;BME280;28680;45.642;13.756;2023-05-15T00:01:36;100707.16;;;14.26;100.00
35647;BME280;28680;45.642;13.756;2023-05-15T00:04:02;100712.28;;;14.27;100.00
35647;BME280;28680;45.642;13.756;2023-05-15T00:06:28;100712.00;;;14.30;100.00
35647;BME280;28680;45.642;13.756;2023-05-15T00:08:57;100715.78;;;14.28;100.00
35647;BME280;28680;45.642;13.756;2023-05-15T00:11:23;100710.63;;;14.26;100.00
35647;BME280;28680;45.642;13.756;2023-05-15T00:13:53;100704.94;;;14.21;100.00
35647;BME280;28680;45.642;13.756;2023-05-15T00:16:19;100700.34;;;14.23;100.00
35647;BME280;28680;45.642;13.756;2023-05-15T00:18:44;100696.88;;;14.22;100.00
35647;BME280;28680;45.642;13.756;2023-05-15T00:21:10;100691.75;;;14.21;100.00
35647;BME280;28680;45.642;13.756;2023-05-15T00:23:36;100682.03;;;14.21;100.00
35647;BME280;28680;45.642;13.756;2023-05-15T00:26:02;100683.84;;;14.21;100.00
35647;BME280;28680;45.642;13.756;2023-05-15T00:28:28;100684.69;;;14.21;100.00
35647;BME280;28680;45.642;13.756;2023-05-15T00:30:54;100675.22;;;14.19;100.00
35647;BME280;28680;45.642;13.756;2023-05-15T00:33:20;100673.97;;;14.23;100.00
35647;BME280;28680;45.642;13.756;2023-05-15T00:35:46;100671.31;;;14.23;100.00
35647;BME280;28680;45.642;13.756;2023-05-15T00:38:12;100683.16;;;14.19;100.00
35647;BME280;28680;45.642;13.756;2023-05-15T00:40:38;100679.53;;;14.20;100.00
35647;BME280;28680;45.642;13.756;2023-05-15T00:43:05;100674.94;;;14.22;100.00
35647;BME280;28680;45.642;13.756;2023-05-15T00:45:32;100672.44;;;14.20;100.00
35647;BME280;28680;45.642;13.756;2023-05-15T00:48:00;100679.69;;;14.18;100.00
35647;BME280;28680;45.642;13.756;2023-05-15T00:50:26;100680.50;;;14.19;100.00
35647;BME280;28680;45.642;13.756;2023-05-15T00:52:52;100685.78;;;14.19;100.00
35647;BME280;28680;45.642;13.756;2023-05-15T00:55:22;100672.50;;;14.11;100.00
35647;BME280;28680;45.642;13.756;2023-05-15T00:57:49;100676.94;;;14.10;100.00
35647;BME280;28680;45.642;13.756;2023-05-15T01:00:17;100675.28;;;14.09;100.00
35647;BME280;28680;45.642;13.756;2023-05-15T01:02:43;100682.66;;;14.06;100.00
35647;BME280;28680;45.642;13.756;2023-05-15T01:05:09;100677.81;;;14.01;100.00
35647;BME280;28680;45.642;13.756;2023-05-15T01:07:44;100686.13;;;13.96;100.00
35647;BME280;28680;45.642;13.756;2023-05-15T01:10:15;100682.81;;;13.94;100.00
35647;BME280;28680;45.642;13.756;2023-05-15T01:12:43;100684.91;;;13.91;100.00
35647;BME280;28680;45.642;13.756;2023-05-15T01:15:10;100681.16;;;13.93;100.00
35647;BME280;28680;45.642;13.756;2023-05-15T01:17:36;100678.53;;;13.93;100.00
35647;BME280;28680;45.642;13.756;2023-05-15T01:20:05;100679.34;;;13.94;100.00
35647;BME280;28680;45.642;13.756;2023-05-15T01:22:46;100680.63;;;13.90;100.00
35647;BME280;28680;45.642;13.756;2023-05-15T01:25:55;100671.84;;;13.89;100.00
35647;BME280;28680;45.642;13.756;2023-05-15T01:28:39;100674.78;;;13.86;100.00
35647;BME280;28680;45.642;13.756;2023-05-15T01:31:13;100681.88;;;13.86;100.00
35647;BME280;28680;45.642;13.756;2023-05-15T01:33:45;100673.44;;;13.82;100.00
35647;BME280;28680;45.642;13.756;2023-05-15T01:36:20;100679.25;;;13.86;100.00
35647;BME280;28680;45.642;13.756;2023-05-15T01:38:53;100680.63;;;13.90;100.00
35647;BME280;28680;45.642;13.756;2023-05-15T01:41:41;100678.53;;;13.93;100.00
35647;BME280;28680;45.642;13.756;2023-05-15T01:44:18;100674.75;;;13.96;100.00
35647;BME280;28680;45.642;13.756;2023-05-15T01:46:51;100681.84;;;13.95;100.00
35647;BME280;28680;45.642;13.756;2023-05-15T01:49:25;100680.03;;;13.96;100.00
35647;BME280;28680;45.642;13.756;2023-05-15T01:54:33;100687.69;;;13.89;100.00
35647;BME280;28680;45.642;13.756;2023-05-15T01:56:59;100687.69;;;13.89;100.00
35647;BME280;28680;45.642;13.756;2023-05-15T01:59:26;100684.53;;;13.86;100.00
35647;BME280;28680;45.642;13.756;2023-05-15T02:01:54;100690.50;;;13.88;100.00
35647;BME280;28680;45.642;13.756;2023-05-15T02:04:21;100693.94;;;13.88;100.00
35647;BME280;28680;45.642;13.756;2023-05-15T02:06:48;100692.44;;;13.86;100.00
35647;BME280;28680;45.642;13.756;2023-05-15T02:09:22;100690.34;;;13.79;100.00
35647;BME280;28680;45.642;13.756;2023-05-15T02:11:49;100693.41;;;13.84;100.00
35647;BME280;28680;45.642;13.756;2023-05-15T02:14:16;100699.63;;;13.83;100.00
35647;BME280;28680;45.642;13.756;2023-05-15T02:16:42;100698.41;;;13.88;100.00
35647;BME280;28680;45.642;13.756;2023-05-15T02:19:08;100696.72;;;13.87;100.00
35647;BME280;28680;45.642;13.756;2023-05-15T02:21:34;100693.25;;;13.86;100.00
35647;BME280;28680;45.642;13.756;2023-05-15T02:24:00;100690.75;;;13.84;100.00
35647;BME280;28680;45.642;13.756;2023-05-15T02:35:13;100675.63;;;13.87;100.00
35647;BME280;28680;45.642;13.756;2023-05-15T02:37:47;100668.53;;;13.87;100.00
35647;BME280;28680;45.642;13.756;2023-05-15T02:40:14;100655.34;;;13.87;100.00
35647;BME280;28680;45.642;13.756;2023-05-15T02:42:43;100650.47;;;13.92;100.00
35647;BME280;28680;45.642;13.756;2023-05-15T02:45:11;100644.38;;;13.92;100.00
35647;BME280;28680;45.642;13.756;2023-05-15T02:47:38;100654.47;;;13.96;100.00
35647;BME280;28680;45.642;13.756;2023-05-15T02:50:06;100651.84;;;13.96;100.00
35647;BME280;28680;45.642;13.756;2023-05-15T02:52:33;100646.56;;;13.96;100.00
35647;BME280;28680;45.642;13.756;2023-05-15T02:55:02;100649.34;;;13.95;100.00
35647;BME280;28680;45.642;13.756;2023-05-15T02:57:28;100650.47;;;13.92;100.00
35647;BME280;28680;45.642;13.756;2023-05-15T02:59:55;100657.25;;;13.95;100.00
35647;BME280;28680;45.642;13.756;2023-05-15T03:02:22;100649.34;;;13.95;100.00
35647;BME280;28680;45.642;13.756;2023-05-15T03:04:47;100652.84;;;13.95;100.00
35647;BME280;28680;45.642;13.756;2023-05-15T03:07:13;100653.66;;;13.96;100.00
35647;BME280;28680;45.642;13.756;2023-05-15T03:09:40;100648.38;;;13.96;100.00
35647;BME280;28680;45.642;13.756;2023-05-15T03:12:07;100644.75;;;13.97;100.00
35647;BME280;28680;45.642;13.756;2023-05-15T03:14:33;100642.81;;;13.99;100.00
35647;BME280;28680;45.642;13.756;2023-05-15T03:16:59;100654.19;;;13.99;100.00
35647;BME280;28680;45.642;13.756;2023-05-15T03:19:25;100642.81;;;13.99;100.00
35647;BME280;28680;45.642;13.756;2023-05-15T03:21:51;100653.22;;;14.00;100.00
35647;BME280;28680;45.642;13.756;2023-05-15T03:24:17;100643.66;;;13.99;100.00
35647;BME280;28680;45.642;13.756;2023-05-15T03:26:43;100649.75;;;14.00;100.00
35647;BME280;28680;45.642;13.756;2023-05-15T03:29:10;100642.81;;;13.99;100.00
35647;BME280;28680;45.642;13.756;2023-05-15T03:31:36;100643.66;;;13.99;100.00
35647;BME280;28680;45.642;13.756;2023-05-15T03:34:02;100646.28;;;13.99;100.00
35647;BME280;28680;45.642;13.756;2023-05-15T03:36:28;100641.97;;;13.98;100.00
35647;BME280;28680;45.642;13.756;2023-05-15T03:38:54;100639.31;;;13.98;100.00
35647;BME280;28680;45.642;13.756;2023-05-15T03:41:20;100643.09;;;13.96;100.00
35647;BME280;28680;45.642;13.756;2023-05-15T03:43:46;100635.88;;;13.98;100.00
35647;BME280;28680;45.642;13.756;2023-05-15T03:46:12;100646.16;;;14.01;100.00
35647;BME280;28680;45.642;13.756;2023-05-15T03:48:38;100654.06;;;14.01;100.00
35647;BME280;28680;45.642;13.756;2023-05-15T03:51:04;100647.94;;;14.00;100.00
35647;BME280;28680;45.642;13.756;2023-05-15T03:53:30;100648.94;;;13.99;100.00
35647;BME280;28680;45.642;13.756;2023-05-15T03:55:56;100640.88;;;14.01;100.00
35647;BME280;28680;45.642;13.756;2023-05-15T03:58:22;100646.28;;;13.99;100.00
35647;BME280;28680;45.642;13.756;2023-05-15T04:00:48;100641.16;;;13.98;100.00
35647;BME280;28680;45.642;13.756;2023-05-15T04:03:14;100646.28;;;13.99;100.00
35647;BME280;28680;45.642;13.756;2023-05-15T04:05:40;100652.38;;;14.00;100.00
35647;BME280;28680;45.642;13.756;2023-05-15T04:08:06;100648.09;;;13.99;100.00
35647;BME280;28680;45.642;13.756;2023-05-15T04:10:34;100646.28;;;13.99;100.00
35647;BME280;28680;45.642;13.756;2023-05-15T04:13:00;100654.88;;;14.01;100.00
35647;BME280;28680;45.642;13.756;2023-05-15T04:15:25;100641.69;;;14.01;100.00
35647;BME280;28680;45.642;13.756;2023-05-15T04:17:53;100639.88;;;14.02;100.00
35647;BME280;28680;45.642;13.756;2023-05-15T04:20:23;100641.56;;;14.03;100.00
35647;BME280;28680;45.642;13.756;2023-05-15T04:22:50;100638.78;;;14.04;100.00
35647;BME280;28680;45.642;13.756;2023-05-15T04:25:16;100635.28;;;14.04;100.00
35647;BME280;28680;45.642;13.756;2023-05-15T04:27:43;100639.28;;;14.08;100.00
35647;BME280;28680;45.642;13.756;2023-05-15T04:30:10;100637.78;;;14.06;100.00
35647;BME280;28680;45.642;13.756;2023-05-15T04:32:40;100633.50;;;14.04;100.00
35647;BME280;28680;45.642;13.756;2023-05-15T04:35:08;100635.00;;;14.07;100.00
35647;BME280;28680;45.642;13.756;2023-05-15T04:37:42;100631.53;;;14.07;100.00
35647;BME280;28680;45.642;13.756;2023-05-15T04:40:08;100637.38;;;14.10;100.00
35647;BME280;28680;45.642;13.756;2023-05-15T04:42:35;100637.50;;;14.09;100.00
35647;BME280;28680;45.642;13.756;2023-05-15T04:45:02;100638.03;;;14.12;100.00
35647;BME280;28680;45.642;13.756;2023-05-15T04:47:28;100637.72;;;14.15;100.00
35647;BME280;28680;45.642;13.756;2023-05-15T04:49:54;100637.44;;;14.18;100.00
35647;BME280;28680;45.642;13.756;2023-05-15T04:52:20;100637.00;;;14.23;100.00
35647;BME280;28680;45.642;13.756;2023-05-15T04:54:45;100638.38;;;14.27;100.00
35647;BME280;28680;45.642;13.756;2023-05-15T04:57:14;100637.25;;;14.30;100.00
35647;BME280;28680;45.642;13.756;2023-05-15T04:59:40;100629.19;;;14.31;100.00
35647;BME280;28680;45.642;13.756;2023-05-15T05:02:08;100631.25;;;14.37;100.00
35647;BME280;28680;45.642;13.756;2023-05-15T05:04:34;100630.09;;;14.40;100.00
35647;BME280;28680;45.642;13.756;2023-05-15T05:07:00;100637.47;;;14.46;100.00
35647;BME280;28680;45.642;13.756;2023-05-15T05:09:28;100633.53;;;14.50;100.00
35647;BME280;28680;45.642;13.756;2023-05-15T05:11:54;100633.16;;;14.45;100.00
35647;BME280;28680;45.642;13.756;2023-05-15T05:14:20;100642.44;;;14.49;100.00
35647;BME280;28680;45.642;13.756;2023-05-15T05:16:46;100644.09;;;14.50;100.00
35647;BME280;28680;45.642;13.756;2023-05-15T05:19:12;100638.16;;;14.48;100.00
35647;BME280;28680;45.642;13.756;2023-05-15T05:21:38;100640.78;;;14.48;100.00
35647;BME280;28680;45.642;13.756;2023-05-15T05:24:04;100643.25;;;14.50;100.00
35647;BME280;28680;45.642;13.756;2023-05-15T05:26:30;100642.28;;;14.51;100.00
35647;BME280;28680;45.642;13.756;2023-05-15T05:28:56;100631.72;;;14.51;100.00
35647;BME280;28680;45.642;13.756;2023-05-15T05:31:22;100625.31;;;14.53;100.00
35647;BME280;28680;45.642;13.756;2023-05-15T05:33:48;100618.91;;;14.56;100.00
35647;BME280;28680;45.642;13.756;2023-05-15T05:36:14;100615.16;;;14.58;100.00
35647;BME280;28680;45.642;13.756;2023-05-15T05:38:40;100618.34;;;14.62;100.00
35647;BME280;28680;45.642;13.756;2023-05-15T05:41:06;100615.09;;;14.68;100.00
35647;BME280;28680;45.642;13.756;2023-05-15T05:43:32;100608.84;;;14.69;100.00
35647;BME280;28680;45.642;13.756;2023-05-15T05:45:58;100619.94;;;14.73;100.00
35647;BME280;28680;45.642;13.756;2023-05-15T05:48:24;100616.75;;;14.87;100.00
35647;BME280;28680;45.642;13.756;2023-05-15T05:50:51;100620.03;;;14.99;100.00
35647;BME280;28680;45.642;13.756;2023-05-15T05:53:17;100624.22;;;15.10;100.00
35647;BME280;28680;45.642;13.756;2023-05-15T05:55:43;100613.75;;;15.18;100.00
35647;BME280;28680;45.642;13.756;2023-05-15T05:58:09;100612.44;;;15.22;100.00
35647;BME280;28680;45.642;13.756;2023-05-15T06:00:46;100596.59;;;15.22;100.00
35647;BME280;28680;45.642;13.756;2023-05-15T06:03:26;100600.09;;;15.31;100.00
35647;BME280;28680;45.642;13.756;2023-05-15T06:05:52;100595.34;;;15.34;100.00
35647;BME280;28680;45.642;13.756;2023-05-15T06:08:19;100608.22;;;15.29;100.00
35647;BME280;28680;45.642;13.756;2023-05-15T06:10:45;100599.75;;;15.26;100.00
35647;BME280;28680;45.642;13.756;2023-05-15T06:13:11;100599.06;;;15.24;100.00
35647;BME280;28680;45.642;13.756;2023-05-15T06:15:39;100599.53;;;15.19;100.00
35647;BME280;28680;45.642;13.756;2023-05-15T06:18:05;100600.19;;;15.21;100.00
35647;BME280;28680;45.642;13.756;2023-05-15T06:20:32;100610.00;;;15.29;100.00
35647;BME280;28680;45.642;13.756;2023-05-15T06:22:58;100612.13;;;15.25;100.00
35647;BME280;28680;45.642;13.756;2023-05-15T06:25:24;100604.50;;;15.22;100.00
35647;BME280;28680;45.642;13.756;2023-05-15T06:27:50;100597.00;;;15.35;100.00
35647;BME280;28680;45.642;13.756;2023-05-15T06:30:16;100592.38;;;15.37;100.00
35647;BME280;28680;45.642;13.756;2023-05-15T06:32:42;100595.03;;;15.37;100.00
35647;BME280;28680;45.642;13.756;2023-05-15T06:35:09;100599.13;;;15.32;100.00
35647;BME280;28680;45.642;13.756;2023-05-15T06:37:36;100602.63;;;15.40;100.00
35647;BME280;28680;45.642;13.756;2023-05-15T06:40:03;100597.28;;;15.50;100.00
35647;BME280;28680;45.642;13.756;2023-05-15T06:42:29;100584.31;;;15.65;100.00
35647;BME280;28680;45.642;13.756;2023-05-15T06:44:55;100583.78;;;15.62;100.00
35647;BME280;28680;45.642;13.756;2023-05-15T06:47:21;100591.06;;;15.59;100.00
35647;BME280;28680;45.642;13.756;2023-05-15T06:49:47;100576.41;;;15.47;100.00
35647;BME280;28680;45.642;13.756;2023-05-15T06:52:13;100573.63;;;15.49;100.00
35647;BME280;28680;45.642;13.756;2023-05-15T06:54:48;100575.75;;;15.45;100.00
35647;BME280;28680;45.642;13.756;2023-05-15T06:57:14;100572.06;;;15.38;100.00
35647;BME280;28680;45.642;13.756;2023-05-15T06:59:40;100579.22;;;15.46;100.00
35647;BME280;28680;45.642;13.756;2023-05-15T07:02:06;100571.16;;;15.55;100.00
35647;BME280;28680;45.642;13.756;2023-05-15T07:04:32;100573.66;;;15.57;100.00
35647;BME280;28680;45.642;13.756;2023-05-15T07:07:04;100566.38;;;15.59;100.00
35647;BME280;28680;45.642;13.756;2023-05-15T07:09:33;100562.44;;;15.63;100.00
35647;BME280;28680;45.642;13.756;2023-05-15T07:12:00;100570.44;;;15.71;100.00
35647;BME280;28680;45.642;13.756;2023-05-15T07:14:26;100578.38;;;15.71;100.00
35647;BME280;28680;45.642;13.756;2023-05-15T07:16:52;100577.59;;;15.53;100.00
35647;BME280;28680;45.642;13.756;2023-05-15T07:19:18;100580.72;;;15.48;100.00
35647;BME280;28680;45.642;13.756;2023-05-15T07:21:45;100580.13;;;15.63;100.00
35647;BME280;28680;45.642;13.756;2023-05-15T07:24:11;100581.25;;;15.78;100.00
35647;BME280;28680;45.642;13.756;2023-05-15T07:26:40;100580.28;;;15.87;100.00
35647;BME280;28680;45.642;13.756;2023-05-15T07:29:08;100592.19;;;15.83;100.00
35647;BME280;28680;45.642;13.756;2023-05-15T07:31:34;100593.00;;;15.84;100.00
35647;BME280;28680;45.642;13.756;2023-05-15T07:34:00;100594.88;;;15.91;100.00
35647;BME280;28680;45.642;13.756;2023-05-15T07:36:26;100596.41;;;16.02;100.00
35647;BME280;28680;45.642;13.756;2023-05-15T07:38:52;100597.94;;;16.13;100.00
35647;BME280;28680;45.642;13.756;2023-05-15T07:41:18;100594.66;;;16.27;100.00
35647;BME280;28680;45.642;13.756;2023-05-15T07:43:44;100590.09;;;16.46;100.00
35647;BME280;28680;45.642;13.756;2023-05-15T07:46:12;100594.13;;;16.66;100.00
35647;BME280;28680;45.642;13.756;2023-05-15T07:48:38;100596.94;;;16.81;100.00
35647;BME280;28680;45.642;13.756;2023-05-15T07:51:04;100604.25;;;16.79;100.00
35647;BME280;28680;45.642;13.756;2023-05-15T07:53:30;100613.38;;;16.93;100.00
35647;BME280;28680;45.642;13.756;2023-05-15T07:55:58;100615.56;;;17.06;100.00
35647;BME280;28680;45.642;13.756;2023-05-15T07:58:24;100612.91;;;17.06;100.00
35647;BME280;28680;45.642;13.756;2023-05-15T08:00:50;100606.44;;;17.25;100.00
35647;BME280;28680;45.642;13.756;2023-05-15T08:03:19;100597.00;;;17.22;100.00
35647;BME280;28680;45.642;13.756;2023-05-15T08:05:45;100597.28;;;17.44;100.00
35647;BME280;28680;45.642;13.756;2023-05-15T08:08:11;100597.63;;;17.49;100.00
35647;BME280;28680;45.642;13.756;2023-05-15T08:10:37;100578.41;;;17.30;100.00
35647;BME280;28680;45.642;13.756;2023-05-15T08:13:03;100580.06;;;17.40;100.00
35647;BME280;28680;45.642;13.756;2023-05-15T08:15:29;100571.75;;;17.51;100.00
35647;BME280;28680;45.642;13.756;2023-05-15T08:17:55;100562.09;;;17.58;100.00
35647;BME280;28680;45.642;13.756;2023-05-15T08:20:21;100562.41;;;17.71;100.00
35647;BME280;28680;45.642;13.756;2023-05-15T08:22:47;100562.56;;;17.70;100.00
35647;BME280;28680;45.642;13.756;2023-05-15T08:25:13;100570.97;;;17.82;100.00
35647;BME280;28680;45.642;13.756;2023-05-15T08:27:38;100567.50;;;17.81;100.00
35647;BME280;28680;45.642;13.756;2023-05-15T08:30:05;100588.25;;;17.78;100.00
35647;BME280;28680;45.642;13.756;2023-05-15T08:32:31;100597.53;;;17.90;100.00
35647;BME280;28680;45.642;13.756;2023-05-15T08:34:57;100598.66;;;17.96;100.00
35647;BME280;28680;45.642;13.756;2023-05-15T08:37:23;100596.38;;;17.92;100.00
35647;BME280;28680;45.642;13.756;2023-05-15T08:39:52;100590.19;;;18.00;100.00
35647;BME280;28680;45.642;13.756;2023-05-15T08:42:27;100583.63;;;18.19;100.00
35647;BME280;28680;45.642;13.756;2023-05-15T08:45:05;100602.00;;;18.29;100.00
35647;BME280;28680;45.642;13.756;2023-05-15T08:47:35;100595.81;;;18.37;100.00
35647;BME280;28680;45.642;13.756;2023-05-15T08:50:19;100585.09;;;18.53;100.00
35647;BME280;28680;45.642;13.756;2023-05-15T08:52:46;100588.19;;;18.65;100.00
35647;BME280;28680;45.642;13.756;2023-05-15T08:55:16;100584.72;;;18.87;100.00
35647;BME280;28680;45.642;13.756;2023-05-15T08:57:43;100596.59;;;19.00;100.00
35647;BME280;28680;45.642;13.756;2023-05-15T09:00:10;100605.44;;;19.15;100.00
35647;BME280;28680;45.642;13.756;2023-05-15T09:02:39;100597.66;;;19.14;100.00
35647;BME280;28680;45.642;13.756;2023-05-15T09:05:07;100600.41;;;19.20;100.00
35647;BME280;28680;45.642;13.756;2023-05-15T09:07:38;100605.84;;;19.27;100.00
35647;BME280;28680;45.642;13.756;2023-05-15T09:10:09;100591.44;;;19.36;100.00
35647;BME280;28680;45.642;13.756;2023-05-15T09:12:41;100587.16;;;19.50;100.00
35647;BME280;28680;45.642;13.756;2023-05-15T09:15:18;100576.50;;;19.65;100.00
35647;BME280;28680;45.642;13.756;2023-05-15T09:17:48;100581.72;;;19.58;100.00
35647;BME280;28680;45.642;13.756;2023-05-15T09:22:56;100579.03;;;19.81;100.00
35647;BME280;28680;45.642;13.756;2023-05-15T09:25:40;100582.03;;;20.08;100.00
35647;BME280;28680;45.642;13.756;2023-05-15T09:28:31;100583.19;;;20.20;100.00
35647;BME280;28680;45.642;13.756;2023-05-15T09:31:03;100579.34;;;20.23;100.00
35647;BME280;28680;45.642;13.756;2023-05-15T09:33:40;100575.94;;;20.14;100.00
35647;BME280;28680;45.642;13.756;2023-05-15T09:36:08;100573.03;;;19.94;100.00
35647;BME280;28680;45.642;13.756;2023-05-15T09:38:42;100583.16;;;19.84;100.00
35647;BME280;28680;45.642;13.756;2023-05-15T09:41:08;100576.72;;;19.78;100.00
35647;BME280;28680;45.642;13.756;2023-05-15T09:43:36;100567.91;;;19.93;100.00
35647;BME280;28680;45.642;13.756;2023-05-15T09:46:03;100563.34;;;20.44;100.00
35647;BME280;28680;45.642;13.756;2023-05-15T09:48:30;100551.75;;;20.52;100.00
35647;BME280;28680;45.642;13.756;2023-05-15T09:50:59;100538.50;;;20.59;100.00
35647;BME280;28680;45.642;13.756;2023-05-15T09:53:31;100532.59;;;20.63;100.00
35647;BME280;28680;45.642;13.756;2023-05-15T09:55:57;100521.09;;;20.84;100.00
35647;BME280;28680;45.642;13.756;2023-05-15T09:58:23;100525.56;;;21.06;100.00
35647;BME280;28680;45.642;13.756;2023-05-15T10:01:19;100532.47;;;20.93;100.00
35647;BME280;28680;45.642;13.756;2023-05-15T10:04:00;100533.34;;;21.00;100.00
35647;BME280;28680;45.642;13.756;2023-05-15T10:06:26;100533.78;;;21.04;100.00
35647;BME280;28680;45.642;13.756;2023-05-15T10:08:53;100540.66;;;21.20;100.00
35647;BME280;28680;45.642;13.756;2023-05-15T10:11:22;100555.94;;;21.05;100.00
35647;BME280;28680;45.642;13.756;2023-05-15T10:13:49;100572.44;;;21.15;100.00
35647;BME280;28680;45.642;13.756;2023-05-15T10:16:24;100589.75;;;21.26;100.00
35647;BME280;28680;45.642;13.756;2023-05-15T10:18:51;100578.22;;;21.47;100.00
35647;BME280;28680;45.642;13.756;2023-05-15T10:21:22;100591.59;;;21.82;100.00
35647;BME280;28680;45.642;13.756;2023-05-15T10:23:50;100590.94;;;21.79;100.00
35647;BME280;28680;45.642;13.756;2023-05-15T10:26:25;100596.56;;;21.91;100.00
35647;BME280;28680;45.642;13.756;2023-05-15T10:28:54;100601.34;;;22.03;100.00
35647;BME280;28680;45.642;13.756;2023-05-15T10:31:24;100613.09;;;22.15;100.00
35647;BME280;28680;45.642;13.756;2023-05-15T10:33:54;100610.47;;;22.22;100.00
35647;BME280;28680;45.642;13.756;2023-05-15T10:36:20;100611.56;;;22.34;100.00
35647;BME280;28680;45.642;13.756;2023-05-15T10:38:47;100595.09;;;22.30;100.00
35647;BME280;28680;45.642;13.756;2023-05-15T10:55:55;100574.03;;;22.82;100.00
35647;BME280;28680;45.642;13.756;2023-05-15T10:58:22;100561.47;;;22.96;100.00
35647;BME280;28680;45.642;13.756;2023-05-15T11:00:48;100562.31;;;23.10;100.00
35647;BME280;28680;45.642;13.756;2023-05-15T11:03:35;100554.06;;;23.25;100.00
35647;BME280;28680;45.642;13.756;2023-05-15T11:06:11;100564.13;;;23.36;100.00
35647;BME280;28680;45.642;13.756;2023-05-15T11:08:41;100550.94;;;23.48;100.00
35647;BME280;28680;45.642;13.756;2023-05-15T11:11:55;100538.78;;;23.52;100.00
35647;BME280;28680;45.642;13.756;2023-05-15T11:14:35;100526.94;;;23.80;100.00
35647;BME280;28680;45.642;13.756;2023-05-15T11:17:12;100525.72;;;23.82;100.00
35647;BME280;28680;45.642;13.756;2023-05-15T11:22:35;100531.06;;;23.82;100.00
35647;BME280;28680;45.642;13.756;2023-05-15T11:25:10;100525.66;;;23.96;100.00
35647;BME280;28680;45.642;13.756;2023-05-15T11:31:39;100518.41;;;24.03;100.00
35647;BME280;28680;45.642;13.756;2023-05-15T11:34:05;100516.34;;;24.05;100.00
35647;BME280;28680;45.642;13.756;2023-05-15T11:36:31;100520.03;;;24.04;100.00
35647;BME280;28680;45.642;13.756;2023-05-15T11:38:58;100526.97;;;24.18;100.00
35647;BME280;28680;45.642;13.756;2023-05-15T11:45:08;100512.53;;;23.81;100.00
35647;BME280;28680;45.642;13.756;2023-05-15T11:54:15;100500.81;;;23.62;100.00
35647;BME280;28680;45.642;13.756;2023-05-15T11:56:48;100496.53;;;23.54;100.00
35647;BME280;28680;45.642;13.756;2023-05-15T11:59:14;100488.66;;;23.66;100.00
35647;BME280;28680;45.642;13.756;2023-05-15T12:12:25;100505.16;;;24.08;100.00
35647;BME280;28680;45.642;13.756;2023-05-15T12:14:59;100491.69;;;23.89;100.00
35647;BME280;28680;45.642;13.756;2023-05-15T12:28:18;100491.56;;;24.41;100.00
35647;BME280;28680;45.642;13.756;2023-05-15T12:34:27;100489.16;;;24.33;100.00
35647;BME280;28680;45.642;13.756;2023-05-15T12:37:54;100478.16;;;24.35;100.00
35647;BME280;28680;45.642;13.756;2023-05-15T12:40:21;100493.75;;;24.19;100.00
35647;BME280;28680;45.642;13.756;2023-05-15T14:25:51;100402.50;;;23.69;100.00
35647;BME280;28680;45.642;13.756;2023-05-15T14:28:17;100405.34;;;23.74;100.00
35647;BME280;28680;45.642;13.756;2023-05-15T14:30:43;100404.00;;;23.97;100.00
35647;BME280;28680;45.642;13.756;2023-05-15T14:33:08;100400.63;;;24.08;100.00
35647;BME280;28680;45.642;13.756;2023-05-15T14:35:35;100404.94;;;24.09;100.00
35647;BME280;28680;45.642;13.756;2023-05-15T14:38:01;100399.81;;;24.07;100.00
35647;BME280;28680;45.642;13.756;2023-05-15T14:40:27;100397.44;;;24.18;100.00
35647;BME280;28680;45.642;13.756;2023-05-15T14:42:53;100397.91;;;24.15;100.00
35647;BME280;28680;45.642;13.756;2023-05-15T14:45:19;100394.94;;;24.23;100.00
35647;BME280;28680;45.642;13.756;2023-05-15T14:47:45;100402.56;;;24.26;100.00
35647;BME280;28680;45.642;13.756;2023-05-15T14:50:11;100397.00;;;23.96;100.00
35647;BME280;28680;45.642;13.756;2023-05-15T14:52:36;100401.81;;;24.12;100.00
35647;BME280;28680;45.642;13.756;2023-05-15T14:55:03;100400.16;;;23.86;100.00
35647;BME280;28680;45.642;13.756;2023-05-15T14:57:31;100398.81;;;23.63;100.00
35647;BME280;28680;45.642;13.756;2023-05-15T14:59:58;100394.94;;;23.59;100.00
35647;BME280;28680;45.642;13.756;2023-05-15T15:02:24;100396.88;;;23.84;100.00
35647;BME280;28680;45.642;13.756;2023-05-15T15:04:50;100398.78;;;23.70;100.00
35647;BME280;28680;45.642;13.756;2023-05-15T15:07:16;100390.09;;;23.74;100.00
35647;BME280;28680;45.642;13.756;2023-05-15T15:09:42;100393.97;;;23.85;100.00
35647;BME280;28680;45.642;13.756;2023-05-15T15:12:08;100397.69;;;23.84;100.00
35647;BME280;28680;45.642;13.756;2023-05-15T15:14:33;100396.28;;;23.75;100.00
35647;BME280;28680;45.642;13.756;2023-05-15T15:16:59;100392.19;;;23.66;100.00
35647;BME280;28680;45.642;13.756;2023-05-15T15:19:25;100383.97;;;23.61;100.00
35647;BME280;28680;45.642;13.756;2023-05-15T15:22:01;100377.94;;;23.79;100.00
35647;BME280;28680;45.642;13.756;2023-05-15T15:24:28;100395.69;;;23.21;100.00
35647;BME280;28680;45.642;13.756;2023-05-15T15:26:54;100385.84;;;23.02;100.00
35647;BME280;28680;45.642;13.756;2023-05-15T15:29:19;100398.81;;;23.11;100.00
35647;BME280;28680;45.642;13.756;2023-05-15T15:31:45;100395.75;;;22.94;100.00